Islamabad Weather



Islamabad's Current Weather

Temprature 37.69o clear sky

clear sky

Rain: 0 %

Min Temprature37.69o
Max Temprature37.69o
Humidity40
Wind Speed2.28 m/h
Sun Rise05:13:37
Sun Set19:13:59
Current Time: 24-Jul-2021 16:19:25
Lat/Lon: 33.7104, 73.1338




Islamabad's Geo Location



Islamabad's Weather Forecast

Time Overall Temp Min Temp Max Temp Humidity Wind Speed Rain
24-Jul-2021 (Sat)
17:00:00 clear sky 37.690 37.690 38.840 40 1.8 m/h 0 %
20:00:00 clear sky 36.710 34.740 36.710 38 0.86 m/h 0 %
23:00:00 clear sky 34.360 32.700 34.360 41 2.81 m/h 0 %
25-Jul-2021 (Sun)
02:00:00 clear sky 31.300 31.300 31.300 44 3.02 m/h 0 %
05:00:00 scattered clouds 30.480 30.480 30.480 47 2.84 m/h 0 %
08:00:00 scattered clouds 34.500 34.500 34.500 41 2.4 m/h 0 %
11:00:00 broken clouds 37.480 37.480 37.480 35 2.82 m/h 0 %
14:00:00 broken clouds 39.750 39.750 39.750 28 2.6 m/h 0 %
17:00:00 scattered clouds 39.970 39.970 39.970 27 2.13 m/h 0 %
20:00:00 few clouds 35.860 35.860 35.860 35 1.41 m/h 0 %
23:00:00 few clouds 33.180 33.180 33.180 47 3.8 m/h 0 %
26-Jul-2021 (Mon)
02:00:00 scattered clouds 31.490 31.490 31.490 60 3.47 m/h 0 %
05:00:00 broken clouds 30.640 30.640 30.640 62 2.98 m/h 0 %
08:00:00 overcast clouds 33.170 33.170 33.170 57 3.52 m/h 0 %
11:00:00 broken clouds 36.380 36.380 36.380 47 3.98 m/h 0 %
14:00:00 overcast clouds 38.330 38.330 38.330 39 2.97 m/h 0 %
17:00:00 overcast clouds 34.420 34.420 34.420 53 4.78 m/h 0 %
20:00:00 broken clouds 33.720 33.720 33.720 52 3.57 m/h 0 %
23:00:00 broken clouds 31.160 31.160 31.160 68 4.81 m/h 0 %
27-Jul-2021 (Tue)
02:00:00 light rain 29.000 29.000 29.000 79 3.2 m/h 51 %
05:00:00 light rain 28.600 28.600 28.600 80 3.4 m/h 226 %
08:00:00 light rain 28.570 28.570 28.570 81 2.48 m/h 81 %
11:00:00 overcast clouds 31.920 31.920 31.920 66 3.88 m/h 0 %
14:00:00 light rain 35.000 35.000 35.000 53 4.24 m/h 59 %
17:00:00 light rain 32.780 32.780 32.780 62 4.81 m/h 111 %
20:00:00 moderate rain 29.700 29.700 29.700 76 4.59 m/h 530 %
23:00:00 moderate rain 27.200 27.200 27.200 87 3.93 m/h 379 %
28-Jul-2021 (Wed)
02:00:00 moderate rain 26.530 26.530 26.530 88 4.42 m/h 635 %
05:00:00 moderate rain 26.010 26.010 26.010 90 2.65 m/h 541 %
08:00:00 moderate rain 25.370 25.370 25.370 92 2.77 m/h 418 %
11:00:00 moderate rain 24.760 24.760 24.760 92 2.54 m/h 705 %
14:00:00 light rain 25.600 25.600 25.600 92 2.79 m/h 171 %
17:00:00 light rain 25.660 25.660 25.660 89 3.57 m/h 237 %
20:00:00 light rain 25.590 25.590 25.590 87 2.66 m/h 44 %
23:00:00 light rain 25.810 25.810 25.810 84 1.39 m/h 26 %
29-Jul-2021 (Thu)
02:00:00 light rain 24.310 24.310 24.310 90 0.6 m/h 165 %
05:00:00 light rain 24.020 24.020 24.020 93 0.94 m/h 208 %
08:00:00 light rain 25.200 25.200 25.200 88 1.06 m/h 295 %
11:00:00 light rain 28.300 28.300 28.300 73 1.66 m/h 43 %
14:00:00 light rain 31.280 31.280 31.280 61 1.88 m/h 23 %


Islamabad's Tourist Spots

Historical Places in Islamabad

Famous Cities (60)